Terminal Aerodrome Forecast
Issued by NWS

Home | Current Version | Previous Version | Text Only | Print | Product List | Glossary On
Versions: 1 2 3 4 5 6 7 8 9 10 11 12 13 14
000
FTPA31 PHFO 071741
TAFHOG
TAF
PHOG 071741Z 0718/0818 03007KT P6SM FEW015 SCT050 BKN250
     FM080000 03010KT P6SM VCSH SCT025 BKN050 BKN200
     FM080600 15005KT P6SM VCSH SCT025 BKN050 BKN150
      AMD LTD TO VIS AND WIND 0809/0816=

USA.gov is the U.S. government's official web portal to all federal, state and local government web resources and services.